Online Now
Guests 3
Members   0

24/7 FSX Server
IP: 71.135.74.145
@ PHKO until 4/3/20



Information and tools for flight simulation use only - NOT for real avaition

File Flight Plans Here

PHKO 300553Z 22004KT 10SM SCT025 BKN050 25/21 A3000 RMK AO2 SLP157 60002 T02500206 10278 20250 53020PHKO 300533Z 3006/3106 21008KT P6SM VCSH SCT030 BKN050 TEMPO 3006/3009 4SM SHRA BR BKN030 FM300900 VRB05KT P6SM FEW030 SCT050 FM302100 24008KT P6SM VCSH FEW035 BKN050
Aviation Digital Data Service (ADDS)



Other FSX servers